Time;durP1;ratioP1;P1;durP2;ratioP2;P2;SDS_P1;SDS_P2;PMS_P1;PMS_P2;Temp;Humidity;BMP_temperature;BMP_pressure;BME280_temperature;BME280_humidity;BME280_pressure;Samples;Min_cycle;Max_cycle;Signal;HPM_P1;HPM_P2
2023/12/17 00:01:13;;;;;;;2.50;2.20;;;6.40;99.90;;;;;;7391544;19;20141;-78
2023/12/17 00:03:39;;;;;;;3.13;2.07;;;6.40;99.90;;;;;;7393323;19;20648;-78
2023/12/17 00:06:05;;;;;;;2.60;1.70;;;6.40;99.90;;;;;;7388561;19;20210;-78
2023/12/17 00:08:31;;;;;;;3.03;2.53;;;6.40;99.90;;;;;;7389187;19;20138;-77
2023/12/17 00:10:58;;;;;;;4.23;2.33;;;6.40;99.90;;;;;;7389395;19;20142;-76
2023/12/17 00:13:27;;;;;;;3.27;2.33;;;6.40;99.90;;;;;;7390428;19;20590;-79
2023/12/17 00:15:52;;;;;;;3.13;2.23;;;5.50;99.90;;;;;;7390479;19;20150;-76
2023/12/17 00:18:18;;;;;;;3.53;3.03;;;5.30;99.90;;;;;;7391679;19;20138;-78
2023/12/17 00:20:44;;;;;;;3.53;2.83;;;5.40;99.90;;;;;;7389582;19;20147;-77
2023/12/17 00:23:10;;;;;;;3.00;2.17;;;5.80;99.90;;;;;;7389171;19;20162;-75
2023/12/17 00:25:36;;;;;;;2.97;2.43;;;6.00;99.90;;;;;;7389537;19;20149;-77
2023/12/17 00:28:02;;;;;;;3.00;2.50;;;6.00;99.90;;;;;;7390337;19;20686;-76
2023/12/17 00:30:28;;;;;;;4.03;2.67;;;6.00;99.90;;;;;;7389991;19;20163;-78
2023/12/17 00:32:53;;;;;;;2.20;1.97;;;6.00;99.90;;;;;;7388200;19;20154;-77
2023/12/17 00:35:20;;;;;;;3.00;2.70;;;6.10;99.90;;;;;;7390681;19;20146;-77
2023/12/17 00:37:45;;;;;;;4.73;2.90;;;6.00;99.90;;;;;;7395126;19;20143;-78
2023/12/17 00:40:11;;;;;;;2.47;1.93;;;6.00;99.90;;;;;;7396921;19;20172;-77
2023/12/17 00:42:37;;;;;;;2.47;1.63;;;6.00;99.90;;;;;;7396528;19;20890;-77
2023/12/17 00:45:03;;;;;;;2.47;2.27;;;5.70;99.90;;;;;;7396963;19;20154;-76
2023/12/17 00:47:29;;;;;;;2.77;2.37;;;5.50;99.90;;;;;;7393999;19;20166;-76
2023/12/17 00:49:54;;;;;;;3.77;2.80;;;5.70;99.90;;;;;;7399548;19;20149;-76
2023/12/17 00:52:21;;;;;;;2.53;1.90;;;5.80;99.90;;;;;;7394722;19;20151;-77
2023/12/17 00:54:48;;;;;;;2.07;1.90;;;5.60;99.90;;;;;;7397668;19;20607;-77
2023/12/17 00:57:14;;;;;;;3.00;2.37;;;5.50;99.90;;;;;;7395461;19;20161;-78
2023/12/17 00:59:40;;;;;;;3.97;3.33;;;5.50;99.90;;;;;;7395625;19;20241;-78
2023/12/17 01:02:06;;;;;;;3.93;2.60;;;5.40;99.90;;;;;;7397186;19;20282;-77
2023/12/17 01:04:32;;;;;;;3.40;2.27;;;5.70;99.90;;;;;;7395675;19;20572;-75
2023/12/17 01:06:58;;;;;;;5.20;2.83;;;5.90;99.90;;;;;;7396984;19;20150;-77
2023/12/17 01:09:23;;;;;;;2.33;1.97;;;5.90;99.90;;;;;;7394215;19;20150;-76
2023/12/17 01:11:49;;;;;;;3.30;2.90;;;5.90;99.90;;;;;;7395146;19;20131;-76
2023/12/17 01:14:15;;;;;;;3.23;2.87;;;5.90;99.90;;;;;;7396038;19;20175;-77
2023/12/17 01:16:41;;;;;;;3.77;2.73;;;5.90;99.90;;;;;;7396802;19;20650;-77
2023/12/17 01:19:06;;;;;;;3.13;2.60;;;5.90;99.90;;;;;;7396426;19;20122;-77
2023/12/17 01:21:32;;;;;;;3.00;2.70;;;5.50;99.90;;;;;;7396197;19;20147;-78
2023/12/17 01:23:58;;;;;;;3.37;2.53;;;5.50;99.90;;;;;;7395333;19;20138;-78
2023/12/17 01:26:26;;;;;;;4.00;2.30;;;5.70;99.90;;;;;;7394816;19;20152;-78
2023/12/17 01:28:55;;;;;;;3.37;3.00;;;5.80;99.90;;;;;;7395903;19;20546;-78
2023/12/17 01:31:23;;;;;;;2.70;2.20;;;5.80;99.90;;;;;;7393088;19;20163;-78
2023/12/17 01:33:49;;;;;;;2.67;2.03;;;5.80;99.90;;;;;;7396064;19;20151;-77
2023/12/17 01:36:14;;;;;;;3.10;2.37;;;5.70;99.90;;;;;;7397193;19;20486;-77
2023/12/17 01:38:40;;;;;;;4.83;3.03;;;5.80;99.90;;;;;;7395058;19;20143;-77
2023/12/17 01:41:06;;;;;;;4.70;3.03;;;5.80;99.90;;;;;;7395131;19;20629;-78
2023/12/17 01:43:32;;;;;;;2.37;1.50;;;5.80;99.90;;;;;;7394847;19;20206;-78
2023/12/17 01:45:59;;;;;;;3.57;2.57;;;5.80;99.90;;;;;;7394098;19;20158;-77
2023/12/17 01:48:26;;;;;;;5.47;2.90;;;5.70;99.90;;;;;;7393282;19;20135;-78
2023/12/17 01:50:53;;;;;;;3.80;3.23;;;5.70;99.90;;;;;;7396257;19;20134;-78
2023/12/17 01:53:19;;;;;;;2.47;2.23;;;5.80;99.90;;;;;;7395491;19;20149;-77
2023/12/17 01:55:49;;;;;;;2.50;1.70;;;5.80;99.90;;;;;;7394587;19;20271;-77
2023/12/17 01:58:16;;;;;;;3.03;2.50;;;5.80;99.90;;;;;;7392780;19;20179;-76
2023/12/17 02:00:42;;;;;;;3.97;2.20;;;5.80;99.90;;;;;;7396322;19;20630;-78
2023/12/17 02:03:08;;;;;;;3.53;2.43;;;5.70;99.90;;;;;;7394320;19;20134;-75
2023/12/17 02:05:34;;;;;;;1.93;1.73;;;5.70;99.90;;;;;;7393758;19;20171;-77
2023/12/17 02:08:01;;;;;;;2.47;2.20;;;5.00;99.90;;;;;;7393047;19;20174;-76
2023/12/17 02:10:27;;;;;;;3.43;2.57;;;4.40;99.90;;;;;;7394548;19;20138;-77
2023/12/17 02:12:53;;;;;;;3.10;2.43;;;4.60;99.90;;;;;;7392837;19;20453;-77
2023/12/17 02:15:19;;;;;;;2.47;2.10;;;5.00;99.90;;;;;;7394954;19;20146;-77
2023/12/17 02:17:45;;;;;;;2.37;2.13;;;5.20;99.90;;;;;;7392096;19;20596;-77
2023/12/17 02:20:11;;;;;;;4.97;2.60;;;5.40;99.90;;;;;;7392970;19;20158;-77
2023/12/17 02:22:38;;;;;;;1.70;1.60;;;5.50;99.90;;;;;;7388499;19;20214;-78
2023/12/17 02:25:05;;;;;;;2.57;1.70;;;5.50;99.90;;;;;;7393862;19;20628;-78
2023/12/17 02:27:31;;;;;;;3.57;1.80;;;5.10;99.90;;;;;;7392764;19;20135;-76
2023/12/17 02:29:57;;;;;;;2.90;1.73;;;4.80;99.90;;;;;;7394734;19;20603;-77
2023/12/17 02:32:23;;;;;;;3.47;2.53;;;4.80;99.90;;;;;;7394469;19;20152;-76
2023/12/17 02:34:50;;;;;;;2.10;1.97;;;5.20;99.90;;;;;;7394838;19;20489;-77
2023/12/17 02:37:16;;;;;;;2.40;1.63;;;5.30;99.90;;;;;;7396445;19;20127;-77
2023/12/17 02:39:44;;;;;;;1.97;1.50;;;5.40;99.90;;;;;;7393562;19;20145;-77
2023/12/17 02:42:10;;;;;;;3.07;1.97;;;5.50;99.90;;;;;;7393732;19;20134;-77
2023/12/17 02:44:36;;;;;;;2.97;2.27;;;5.50;99.90;;;;;;7393712;19;20243;-79
2023/12/17 02:47:02;;;;;;;1.80;1.70;;;5.30;99.90;;;;;;7391091;19;20174;-76
2023/12/17 02:49:29;;;;;;;2.87;2.27;;;5.50;99.90;;;;;;7394081;19;20599;-78
2023/12/17 02:51:55;;;;;;;1.77;1.60;;;5.50;99.90;;;;;;7393200;19;20142;-77
2023/12/17 02:54:23;;;;;;;3.03;1.40;;;5.50;99.90;;;;;;7394879;19;20589;-77
2023/12/17 02:56:51;;;;;;;2.77;2.00;;;5.50;99.90;;;;;;7390900;19;20146;-77
2023/12/17 02:59:18;;;;;;;2.17;1.97;;;5.60;99.90;;;;;;7390075;19;20131;-78
2023/12/17 03:01:44;;;;;;;2.37;1.57;;;5.50;99.90;;;;;;7395368;19;20142;-78
2023/12/17 03:04:10;;;;;;;1.77;1.67;;;5.60;99.90;;;;;;7392198;19;20146;-77
2023/12/17 03:06:37;;;;;;;1.70;1.60;;;5.60;99.90;;;;;;7392612;19;20178;-77
2023/12/17 03:09:04;;;;;;;2.27;1.67;;;5.60;99.90;;;;;;7391057;19;20226;-78
2023/12/17 03:11:30;;;;;;;2.83;1.93;;;5.50;99.90;;;;;;7393236;19;20472;-78
2023/12/17 03:13:56;;;;;;;3.50;2.00;;;5.60;99.90;;;;;;7391110;19;20157;-77
2023/12/17 03:16:23;;;;;;;4.47;2.50;;;5.50;99.90;;;;;;7393134;19;20142;-77
2023/12/17 03:18:48;;;;;;;1.70;1.60;;;5.50;99.90;;;;;;7390903;19;20136;-77
2023/12/17 03:21:14;;;;;;;1.90;1.40;;;5.50;99.90;;;;;;7390299;19;20249;-76
2023/12/17 03:23:40;;;;;;;2.30;1.80;;;5.50;99.90;;;;;;7387029;19;20138;-77
2023/12/17 03:26:07;;;;;;;2.37;1.90;;;5.60;99.90;;;;;;7392837;19;20130;-77
2023/12/17 03:28:32;;;;;;;2.00;1.73;;;5.60;99.90;;;;;;7391872;19;20134;-78
2023/12/17 03:30:58;;;;;;;1.70;1.60;;;5.60;99.90;;;;;;7390334;19;20537;-79
2023/12/17 03:33:24;;;;;;;4.03;2.20;;;5.70;99.90;;;;;;7393508;19;20138;-78
2023/12/17 03:35:50;;;;;;;1.70;1.57;;;5.70;99.90;;;;;;7391847;19;20139;-77
2023/12/17 03:38:16;;;;;;;1.23;1.17;;;5.60;99.90;;;;;;7392548;19;20155;-78
2023/12/17 03:40:42;;;;;;;1.87;1.20;;;5.70;99.90;;;;;;7392458;19;20146;-77
2023/12/17 03:43:07;;;;;;;1.67;1.33;;;5.60;99.90;;;;;;7390723;19;20607;-78
2023/12/17 03:45:33;;;;;;;1.60;1.50;;;5.70;99.90;;;;;;7391373;19;20145;-79
2023/12/17 03:48:00;;;;;;;2.50;1.87;;;5.50;99.90;;;;;;7387653;19;20898;-79
2023/12/17 03:50:26;;;;;;;3.20;2.10;;;5.50;99.90;;;;;;7390841;19;20218;-77
2023/12/17 03:52:52;;;;;;;1.97;1.70;;;5.40;99.90;;;;;;7389135;19;20139;-78
2023/12/17 03:55:18;;;;;;;2.07;1.87;;;5.50;99.90;;;;;;7390614;19;20151;-77
2023/12/17 03:57:47;;;;;;;2.27;1.57;;;5.50;99.90;;;;;;7390153;19;20156;-76
2023/12/17 04:00:13;;;;;;;2.40;1.50;;;5.50;99.90;;;;;;7389894;19;20182;-78
2023/12/17 04:02:39;;;;;;;1.77;1.37;;;5.60;99.90;;;;;;7390997;19;20797;-77
2023/12/17 04:05:05;;;;;;;2.07;1.40;;;5.60;99.90;;;;;;7389158;19;20214;-76
2023/12/17 04:07:31;;;;;;;1.40;1.23;;;5.60;99.90;;;;;;7391133;19;20135;-77
2023/12/17 04:09:57;;;;;;;2.03;1.37;;;5.50;99.90;;;;;;7390993;19;20135;-77
2023/12/17 04:12:23;;;;;;;1.90;1.47;;;5.40;99.90;;;;;;7396687;19;20141;-77
2023/12/17 04:14:49;;;;;;;3.77;1.23;;;5.20;99.90;;;;;;7398661;19;20134;-77
2023/12/17 04:17:18;;;;;;;4.20;2.27;;;5.30;99.90;;;;;;7398208;19;20841;-78
2023/12/17 04:19:43;;;;;;;1.20;1.10;;;5.20;99.90;;;;;;7396425;19;20135;-78
2023/12/17 04:22:09;;;;;;;3.03;1.67;;;5.30;99.90;;;;;;7396573;19;20134;-79
2023/12/17 04:24:35;;;;;;;2.90;1.00;;;5.40;99.90;;;;;;7396631;19;20536;-78
2023/12/17 04:27:00;;;;;;;1.47;1.37;;;5.40;99.90;;;;;;7398258;19;20482;-77
2023/12/17 04:29:26;;;;;;;2.00;1.60;;;5.00;99.90;;;;;;7397978;19;20127;-77
2023/12/17 04:31:52;;;;;;;1.13;1.03;;;4.60;99.90;;;;;;7396934;19;20590;-78
2023/12/17 04:34:18;;;;;;;2.93;1.60;;;4.80;99.90;;;;;;7398859;19;20130;-78
2023/12/17 04:36:44;;;;;;;2.07;1.80;;;5.10;99.90;;;;;;7398324;19;20607;-77
2023/12/17 04:39:10;;;;;;;1.90;1.77;;;4.80;99.90;;;;;;7397193;19;20455;-78
2023/12/17 04:41:36;;;;;;;1.37;1.20;;;4.60;99.90;;;;;;7397161;19;20153;-78
2023/12/17 04:44:03;;;;;;;1.67;1.57;;;4.50;99.90;;;;;;7396666;19;20147;-78
2023/12/17 04:46:29;;;;;;;2.87;1.80;;;4.60;99.90;;;;;;7396772;19;20147;-77
2023/12/17 04:48:56;;;;;;;2.30;1.87;;;4.80;99.90;;;;;;7396727;19;20163;-78
2023/12/17 04:51:22;;;;;;;1.90;1.30;;;5.00;99.90;;;;;;7397233;19;20154;-78
2023/12/17 04:53:49;;;;;;;1.97;1.43;;;5.20;99.90;;;;;;7396921;19;20154;-78
2023/12/17 04:56:15;;;;;;;1.63;1.50;;;5.20;99.90;;;;;;7396096;19;20280;-78
2023/12/17 04:58:41;;;;;;;1.93;1.67;;;5.30;99.90;;;;;;7395428;19;20154;-77
2023/12/17 05:01:07;;;;;;;1.87;1.63;;;5.20;99.90;;;;;;7398441;19;20158;-77
2023/12/17 05:03:33;;;;;;;2.07;1.63;;;5.20;99.90;;;;;;7395795;19;20154;-78
2023/12/17 05:05:58;;;;;;;3.23;2.07;;;5.10;99.90;;;;;;7395068;19;20146;-78
2023/12/17 05:08:24;;;;;;;1.83;1.73;;;5.10;99.90;;;;;;7395215;19;20151;-78
2023/12/17 05:10:50;;;;;;;2.23;1.40;;;5.10;99.90;;;;;;7398922;19;20130;-78
2023/12/17 05:13:16;;;;;;;2.13;1.60;;;4.90;99.90;;;;;;7393051;19;20134;-79
2023/12/17 05:15:42;;;;;;;2.50;2.10;;;5.10;99.90;;;;;;7396339;19;20138;-78
2023/12/17 05:18:08;;;;;;;1.73;1.57;;;5.20;99.90;;;;;;7397577;19;20479;-78
2023/12/17 05:20:33;;;;;;;1.60;1.50;;;5.10;99.90;;;;;;7396989;19;20138;-79
2023/12/17 05:22:59;;;;;;;1.77;1.67;;;4.90;99.90;;;;;;7394004;19;20531;-79
2023/12/17 05:25:25;;;;;;;1.70;1.50;;;4.90;99.90;;;;;;7396451;19;20130;-78
2023/12/17 05:27:51;;;;;;;1.60;1.47;;;5.00;99.90;;;;;;7395177;19;20131;-79
2023/12/17 05:30:17;;;;;;;1.10;1.00;;;4.50;99.90;;;;;;7396616;19;20135;-77
2023/12/17 05:32:42;;;;;;;2.07;1.40;;;4.30;99.90;;;;;;7395690;19;20210;-79
2023/12/17 05:35:08;;;;;;;5.00;1.20;;;4.60;99.90;;;;;;7395315;19;20143;-79
2023/12/17 05:37:34;;;;;;;1.60;1.33;;;4.90;99.90;;;;;;7397380;19;20131;-79
2023/12/17 05:40:00;;;;;;;2.30;1.60;;;5.00;99.90;;;;;;7393926;19;20146;-79
2023/12/17 05:42:26;;;;;;;2.50;1.60;;;5.10;99.90;;;;;;7396073;19;20131;-78
2023/12/17 05:44:51;;;;;;;1.87;1.27;;;5.10;99.90;;;;;;7394514;19;21964;-78
2023/12/17 05:47:17;;;;;;;1.50;1.40;;;4.90;99.90;;;;;;7392876;19;20139;-79
2023/12/17 05:49:43;;;;;;;2.87;2.53;;;4.90;99.90;;;;;;7393678;19;20150;-78
2023/12/17 05:52:09;;;;;;;2.30;1.87;;;4.70;99.90;;;;;;7393966;19;20223;-77
2023/12/17 05:54:35;;;;;;;2.37;1.83;;;4.90;99.90;;;;;;7393994;19;20138;-78
2023/12/17 05:57:01;;;;;;;4.67;1.93;;;4.90;99.90;;;;;;7393842;19;20142;-78
2023/12/17 05:59:27;;;;;;;2.20;1.57;;;4.90;99.90;;;;;;7395642;19;20134;-78
2023/12/17 06:01:53;;;;;;;1.97;1.77;;;5.00;99.90;;;;;;7395155;19;20146;-78
2023/12/17 06:04:19;;;;;;;1.33;1.10;;;5.00;99.90;;;;;;7392469;19;20143;-79
2023/12/17 06:06:46;;;;;;;2.10;1.70;;;5.10;99.90;;;;;;7395114;19;20539;-79
2023/12/17 06:09:12;;;;;;;1.17;1.07;;;5.10;99.90;;;;;;7393523;19;20162;-77
2023/12/17 06:11:38;;;;;;;1.47;1.37;;;5.10;99.90;;;;;;7393950;19;20210;-78
2023/12/17 06:14:04;;;;;;;2.13;1.50;;;5.10;99.90;;;;;;7395487;19;20202;-77
2023/12/17 06:16:29;;;;;;;2.13;1.63;;;5.00;99.90;;;;;;7396659;19;20473;-78
2023/12/17 06:18:55;;;;;;;1.93;1.57;;;5.00;99.90;;;;;;7395431;19;20933;-78
2023/12/17 06:21:26;;;;;;;2.03;1.70;;;5.00;99.90;;;;;;7395411;19;20583;-78
2023/12/17 06:23:57;;;;;;;2.10;1.30;;;5.00;99.90;;;;;;7393877;19;20146;-77
2023/12/17 06:26:26;;;;;;;2.87;2.20;;;4.90;99.90;;;;;;7394440;19;20775;-78
2023/12/17 06:28:52;;;;;;;1.53;1.37;;;4.80;99.90;;;;;;7395521;19;20141;-79
2023/12/17 06:31:18;;;;;;;1.77;1.60;;;4.60;99.90;;;;;;7393247;19;20158;-79
2023/12/17 06:33:44;;;;;;;1.80;1.67;;;4.40;99.90;;;;;;7393533;19;20174;-79
2023/12/17 06:36:10;;;;;;;2.47;2.27;;;4.20;99.90;;;;;;7392392;19;20167;-78
2023/12/17 06:38:35;;;;;;;1.43;1.13;;;4.20;99.90;;;;;;7392315;19;20123;-76
2023/12/17 06:41:03;;;;;;;2.60;1.97;;;4.40;99.90;;;;;;7394647;19;20161;-78
2023/12/17 06:43:29;;;;;;;2.50;1.93;;;4.60;99.90;;;;;;7391670;19;20131;-78
2023/12/17 06:45:54;;;;;;;2.03;1.37;;;4.70;99.90;;;;;;7393290;19;20583;-77
2023/12/17 06:48:20;;;;;;;1.73;1.63;;;4.40;99.90;;;;;;7392069;19;20130;-78
2023/12/17 06:50:46;;;;;;;1.97;1.60;;;4.30;99.90;;;;;;7392568;19;20215;-77
2023/12/17 06:53:15;;;;;;;1.30;1.20;;;4.50;99.90;;;;;;7390714;19;20234;-77
2023/12/17 06:55:42;;;;;;;1.63;1.27;;;4.70;99.90;;;;;;7392761;19;20134;-78
2023/12/17 06:58:08;;;;;;;1.40;1.30;;;4.60;99.90;;;;;;7391749;19;20150;-77
2023/12/17 07:00:36;;;;;;;2.07;1.27;;;4.70;99.90;;;;;;7392867;19;20150;-78
2023/12/17 07:03:02;;;;;;;2.23;1.83;;;4.70;99.90;;;;;;7392212;19;20184;-78
2023/12/17 07:05:28;;;;;;;1.30;1.20;;;4.80;99.90;;;;;;7391287;19;20147;-77
2023/12/17 07:07:54;;;;;;;1.40;1.30;;;4.80;99.90;;;;;;7393129;19;20134;-77
2023/12/17 07:10:20;;;;;;;3.43;1.50;;;4.60;99.90;;;;;;7393529;19;20151;-78
2023/12/17 07:12:47;;;;;;;2.40;2.00;;;4.70;99.90;;;;;;7389711;19;20150;-78
2023/12/17 07:15:13;;;;;;;3.47;1.77;;;4.40;99.90;;;;;;7393761;19;20169;-78
2023/12/17 07:17:39;;;;;;;1.10;1.00;;;4.30;99.90;;;;;;7393261;19;20138;-77
2023/12/17 07:20:06;;;;;;;1.70;1.47;;;4.30;99.90;;;;;;7390944;19;20130;-77
2023/12/17 07:22:31;;;;;;;2.20;1.43;;;4.60;99.90;;;;;;7393325;19;20201;-77
2023/12/17 07:24:57;;;;;;;3.57;1.53;;;4.80;99.90;;;;;;7391665;19;20138;-77
2023/12/17 07:27:23;;;;;;;1.50;1.40;;;4.70;99.90;;;;;;7391495;19;20135;-77
2023/12/17 07:29:49;;;;;;;1.83;1.67;;;4.70;99.90;;;;;;7392039;19;20149;-77
2023/12/17 07:32:14;;;;;;;6.23;1.93;;;4.70;99.90;;;;;;7390117;19;20595;-78
2023/12/17 07:34:40;;;;;;;1.87;1.77;;;4.70;99.90;;;;;;7392118;19;20602;-79
2023/12/17 07:37:06;;;;;;;1.37;1.27;;;4.60;99.90;;;;;;7391334;19;20150;-79
2023/12/17 07:39:32;;;;;;;1.70;1.60;;;4.70;99.90;;;;;;7392484;19;20142;-77
2023/12/17 07:41:57;;;;;;;1.63;1.40;;;4.80;99.90;;;;;;7392934;19;20147;-81
2023/12/17 07:44:25;;;;;;;1.50;1.40;;;4.80;99.90;;;;;;7390655;19;20149;-79
2023/12/17 07:46:51;;;;;;;1.40;1.30;;;4.70;99.90;;;;;;7387776;19;20178;-78
2023/12/17 07:49:17;;;;;;;2.27;2.03;;;4.80;99.90;;;;;;7391290;19;20157;-77
2023/12/17 07:51:44;;;;;;;2.83;1.83;;;4.80;99.90;;;;;;7393108;19;20147;-79
2023/12/17 07:54:10;;;;;;;1.30;1.23;;;4.80;99.90;;;;;;7390944;19;20662;-78
2023/12/17 07:56:36;;;;;;;2.13;1.37;;;4.70;99.90;;;;;;7390268;19;20159;-78
2023/12/17 07:59:01;;;;;;;2.63;1.67;;;4.90;99.90;;;;;;7389956;19;20152;-79
2023/12/17 08:01:31;;;;;;;1.63;1.40;;;4.90;99.90;;;;;;7391755;19;20206;-79
2023/12/17 08:04:00;;;;;;;1.43;1.33;;;4.90;99.90;;;;;;7393176;19;20132;-79
2023/12/17 08:06:26;;;;;;;1.63;1.30;;;5.00;99.90;;;;;;7389655;19;20614;-79
2023/12/17 08:08:53;;;;;;;2.10;1.93;;;5.00;99.90;;;;;;7391535;19;20166;-79
2023/12/17 08:11:22;;;;;;;1.77;1.43;;;4.90;99.90;;;;;;7391292;19;20264;-79
2023/12/17 08:13:48;;;;;;;2.63;1.93;;;5.00;99.90;;;;;;7389510;19;20150;-80
2023/12/17 08:16:14;;;;;;;3.07;1.97;;;5.00;99.90;;;;;;7390448;19;20133;-78
2023/12/17 08:18:40;;;;;;;2.40;2.20;;;5.10;99.90;;;;;;7389084;19;20134;-79
2023/12/17 08:21:06;;;;;;;1.67;1.57;;;5.10;99.90;;;;;;7386138;19;20198;-80
2023/12/17 08:23:31;;;;;;;1.37;1.23;;;5.10;99.90;;;;;;7389953;19;20145;-76
2023/12/17 08:25:57;;;;;;;2.07;1.87;;;5.10;99.90;;;;;;7390722;19;20456;-76
2023/12/17 08:28:23;;;;;;;1.83;1.60;;;5.10;99.90;;;;;;7390142;19;20133;-82
2023/12/17 08:30:49;;;;;;;1.57;1.47;;;5.00;99.90;;;;;;7388580;19;20146;-77
2023/12/17 08:33:15;;;;;;;1.50;1.40;;;5.10;99.90;;;;;;7390322;19;20131;-79
2023/12/17 08:35:43;;;;;;;2.53;1.90;;;5.10;99.90;;;;;;7390466;19;20151;-78
2023/12/17 08:38:09;;;;;;;2.57;1.60;;;5.20;99.90;;;;;;7389007;19;20146;-79
2023/12/17 08:40:37;;;;;;;2.00;1.50;;;5.20;99.90;;;;;;7389802;19;20135;-77
2023/12/17 08:43:04;;;;;;;2.03;1.53;;;5.20;99.90;;;;;;7392316;19;20138;-81
2023/12/17 08:45:30;;;;;;;2.63;1.70;;;5.20;99.90;;;;;;7390575;19;20604;-82
2023/12/17 08:47:56;;;;;;;2.03;1.73;;;4.90;99.90;;;;;;7391459;19;20714;-80
2023/12/17 08:50:22;;;;;;;2.20;2.07;;;5.10;99.90;;;;;;7389113;19;20163;-78
2023/12/17 08:52:48;;;;;;;2.53;1.93;;;5.20;99.90;;;;;;7390242;19;20134;-78
2023/12/17 08:55:14;;;;;;;2.73;1.60;;;5.20;99.90;;;;;;7389133;19;20150;-81
2023/12/17 08:57:40;;;;;;;2.03;1.73;;;5.30;99.90;;;;;;7393026;19;20154;-79
2023/12/17 09:00:06;;;;;;;1.50;1.40;;;5.40;99.90;;;;;;7397308;19;20601;-81
2023/12/17 09:02:34;;;;;;;3.30;2.07;;;5.30;99.90;;;;;;7396267;19;20162;-79
2023/12/17 09:05:00;;;;;;;1.60;1.50;;;5.30;99.90;;;;;;7394613;19;20528;-79
2023/12/17 09:07:26;;;;;;;2.03;1.73;;;5.40;99.90;;;;;;7397859;19;20131;-79
2023/12/17 09:09:52;;;;;;;1.33;1.23;;;5.40;99.90;;;;;;7396939;19;20154;-75
2023/12/17 09:12:18;;;;;;;3.17;2.30;;;5.40;99.90;;;;;;7395224;19;20183;-75
2023/12/17 09:14:44;;;;;;;3.87;2.10;;;5.40;99.90;;;;;;7396357;19;20170;-75
2023/12/17 09:17:10;;;;;;;3.87;2.60;;;5.40;99.90;;;;;;7398067;19;20139;-74
2023/12/17 09:19:36;;;;;;;4.87;2.33;;;5.40;99.90;;;;;;7395424;19;20592;-74
2023/12/17 09:22:02;;;;;;;2.03;1.83;;;5.40;99.90;;;;;;7396042;19;20166;-74
2023/12/17 09:24:28;;;;;;;2.30;1.53;;;5.40;99.90;;;;;;7398092;19;20726;-74
2023/12/17 09:26:54;;;;;;;2.10;1.87;;;5.40;99.90;;;;;;7394923;19;20142;-74
2023/12/17 09:29:20;;;;;;;2.20;1.70;;;5.40;99.90;;;;;;7394486;19;20141;-75
2023/12/17 09:31:46;;;;;;;3.97;1.83;;;5.50;99.90;;;;;;7394256;19;20240;-74
2023/12/17 09:34:14;;;;;;;2.10;1.50;;;5.50;99.90;;;;;;7395064;19;20202;-75
2023/12/17 09:36:43;;;;;;;2.07;1.87;;;5.50;99.90;;;;;;7394985;19;20150;-75
2023/12/17 09:39:09;;;;;;;1.77;1.63;;;5.60;99.90;;;;;;7394708;19;20560;-76
2023/12/17 09:41:36;;;;;;;2.37;2.10;;;5.60;99.90;;;;;;7394936;19;20246;-75
2023/12/17 09:44:04;;;;;;;2.60;2.33;;;5.60;99.90;;;;;;7395069;19;20142;-75
2023/12/17 09:46:30;;;;;;;1.70;1.60;;;5.60;99.90;;;;;;7393259;19;20178;-73
2023/12/17 09:48:56;;;;;;;2.30;1.77;;;5.70;99.90;;;;;;7395105;19;20943;-74
2023/12/17 09:51:24;;;;;;;4.07;1.93;;;5.60;99.90;;;;;;7394055;19;20749;-74
2023/12/17 09:53:50;;;;;;;4.20;2.80;;;5.60;99.90;;;;;;7397578;19;20149;-74
2023/12/17 09:56:16;;;;;;;2.10;1.63;;;5.80;99.90;;;;;;7396388;19;20634;-74
2023/12/17 09:58:43;;;;;;;3.13;2.37;;;5.80;99.90;;;;;;7391465;19;20499;-77
2023/12/17 10:01:08;;;;;;;3.27;2.27;;;5.80;99.90;;;;;;7386548;19;20146;-76
2023/12/17 10:03:35;;;;;;;2.90;1.50;;;5.80;99.90;;;;;;7394777;19;20178;-77
2023/12/17 10:06:03;;;;;;;2.47;2.27;;;5.90;99.90;;;;;;7391836;19;20170;-76
2023/12/17 10:08:28;;;;;;;3.13;2.03;;;5.90;99.90;;;;;;7395439;19;20146;-76
2023/12/17 10:10:54;;;;;;;1.60;1.47;;;6.00;99.90;;;;;;7396832;19;20155;-78
2023/12/17 10:13:21;;;;;;;1.43;1.27;;;6.00;99.90;;;;;;7393614;19;20506;-77
2023/12/17 10:15:54;;;;;;;2.37;2.17;;;6.10;99.90;;;;;;7394505;19;20506;-76
2023/12/17 10:18:20;;;;;;;2.70;1.63;;;6.20;99.90;;;;;;7394908;19;20186;-77
2023/12/17 10:20:47;;;;;;;2.20;1.60;;;6.20;99.90;;;;;;7395318;19;20175;-76
2023/12/17 10:23:16;;;;;;;1.47;1.37;;;6.20;99.90;;;;;;7397328;19;20848;-76
2023/12/17 10:25:45;;;;;;;1.77;1.67;;;6.30;99.90;;;;;;7394483;19;20146;-76
2023/12/17 10:28:11;;;;;;;3.10;1.97;;;6.30;99.90;;;;;;7393308;19;20151;-75
2023/12/17 10:30:38;;;;;;;2.77;2.47;;;6.50;99.90;;;;;;7393296;19;20598;-76
2023/12/17 10:33:14;;;;;;;3.07;2.47;;;6.30;99.90;;;;;;7392909;19;20150;-77
2023/12/17 10:35:41;;;;;;;2.60;1.63;;;6.30;99.90;;;;;;7393980;19;20221;-76
2023/12/17 10:38:07;;;;;;;1.97;1.57;;;6.40;99.90;;;;;;7390745;19;20139;-75
2023/12/17 10:40:35;;;;;;;4.53;2.47;;;6.50;99.90;;;;;;7392647;19;20184;-73
2023/12/17 10:43:04;;;;;;;2.00;1.40;;;6.60;99.90;;;;;;7393159;19;20130;-74
2023/12/17 10:45:35;;;;;;;1.90;1.47;;;6.70;99.90;;;;;;7393020;19;20150;-76
2023/12/17 10:48:02;;;;;;;3.23;1.93;;;6.70;99.90;;;;;;7390195;19;20150;-75
2023/12/17 10:50:28;;;;;;;2.37;2.17;;;6.80;99.90;;;;;;7392070;19;20153;-73
2023/12/17 10:52:54;;;;;;;2.50;1.90;;;6.80;99.90;;;;;;7389172;19;20214;-76
2023/12/17 10:55:22;;;;;;;3.13;2.40;;;6.90;99.90;;;;;;7390462;19;20161;-75
2023/12/17 10:57:50;;;;;;;2.17;1.97;;;7.30;99.90;;;;;;7390496;19;20154;-75
2023/12/17 11:00:20;;;;;;;2.70;1.90;;;7.10;99.90;;;;;;7390265;19;20163;-75
2023/12/17 11:02:49;;;;;;;3.57;2.27;;;7.10;99.90;;;;;;7390731;19;20552;-77
2023/12/17 11:05:15;;;;;;;3.17;1.97;;;7.20;99.90;;;;;;7390178;19;20189;-76
2023/12/17 11:07:47;;;;;;;3.20;1.90;;;7.40;99.90;;;;;;7392637;19;20447;-74
2023/12/17 11:10:17;;;;;;;3.17;2.47;;;7.40;99.90;;;;;;7390536;19;20155;-75
2023/12/17 11:12:46;;;;;;;2.77;2.10;;;7.40;99.90;;;;;;7390284;19;20213;-75
2023/12/17 11:15:22;;;;;;;2.67;2.47;;;7.40;99.90;;;;;;7390133;19;20156;-76
2023/12/17 11:17:54;;;;;;;2.60;1.93;;;7.40;99.90;;;;;;7388257;19;20146;-75
2023/12/17 11:20:40;;;;;;;2.43;2.20;;;7.40;99.90;;;;;;7385701;19;20159;-77
2023/12/17 11:23:06;;;;;;;2.40;1.90;;;7.30;99.90;;;;;;7390701;19;20142;-77
2023/12/17 11:25:34;;;;;;;2.30;2.10;;;7.40;99.90;;;;;;7391176;19;20138;-75
2023/12/17 11:28:03;;;;;;;3.57;2.30;;;7.30;99.90;;;;;;7390219;19;20147;-76
2023/12/17 11:30:34;;;;;;;2.30;2.10;;;7.40;99.90;;;;;;7392212;19;20163;-76
2023/12/17 11:33:05;;;;;;;5.47;3.07;;;7.40;99.90;;;;;;7390460;19;20913;-75
2023/12/17 11:35:40;;;;;;;2.70;2.17;;;7.40;99.90;;;;;;7391264;19;20141;-76
2023/12/17 11:38:05;;;;;;;3.13;1.83;;;7.60;99.90;;;;;;7389803;19;20150;-76
2023/12/17 11:40:31;;;;;;;3.03;2.33;;;7.60;99.90;;;;;;7391112;19;20141;-76
2023/12/17 11:43:02;;;;;;;2.27;2.07;;;7.70;99.90;;;;;;7391922;19;20138;-77
2023/12/17 11:45:48;;;;;;;3.83;2.60;;;7.70;99.90;;;;;;7389008;19;20575;-77
2023/12/17 11:48:15;;;;;;;3.90;2.43;;;7.80;99.90;;;;;;7387253;19;20178;-75
2023/12/17 11:50:56;;;;;;;2.30;1.63;;;7.90;99.90;;;;;;7390862;19;20142;-75
2023/12/17 11:53:23;;;;;;;2.87;2.40;;;8.10;99.90;;;;;;7388394;19;20151;-75
2023/12/17 11:56:00;;;;;;;3.33;2.80;;;8.10;99.90;;;;;;7390465;19;20142;-76
2023/12/17 11:58:26;;;;;;;4.30;3.00;;;8.20;99.90;;;;;;7390371;19;20150;-77
2023/12/17 12:01:09;;;;;;;3.73;2.87;;;8.20;99.90;;;;;;7390277;19;20160;-75
2023/12/17 12:03:41;;;;;;;2.83;2.57;;;8.40;99.90;;;;;;7389147;19;20155;-78
2023/12/17 12:06:13;;;;;;;3.30;2.57;;;8.40;99.90;;;;;;7388153;19;20186;-77
2023/12/17 12:08:50;;;;;;;2.27;2.07;;;8.40;99.90;;;;;;7389384;19;20655;-77
2023/12/17 12:11:19;;;;;;;3.13;2.80;;;8.50;99.90;;;;;;7389607;19;20148;-75
2023/12/17 12:13:48;;;;;;;2.97;2.10;;;8.60;99.90;;;;;;7388932;19;20134;-77
2023/12/17 12:16:26;;;;;;;2.43;2.00;;;8.60;99.90;;;;;;7390836;19;20639;-75
2023/12/17 12:19:02;;;;;;;3.53;2.90;;;8.60;99.90;;;;;;7387816;19;20127;-76
2023/12/17 12:21:38;;;;;;;3.40;2.73;;;8.70;99.90;;;;;;7391168;19;20158;-77
2023/12/17 12:24:10;;;;;;;5.93;2.57;;;8.80;99.90;;;;;;7391261;19;20129;-75
2023/12/17 12:26:36;;;;;;;3.30;2.63;;;8.80;99.90;;;;;;7390278;19;20495;-77
2023/12/17 12:29:04;;;;;;;5.97;2.53;;;8.80;99.90;;;;;;7388180;19;20134;-74
2023/12/17 12:31:30;;;;;;;4.00;2.97;;;8.90;99.90;;;;;;7393061;19;20487;-74
2023/12/17 12:34:04;;;;;;;5.73;2.83;;;8.90;99.90;;;;;;7396219;19;20149;-75
2023/12/17 12:36:47;;;;;;;3.90;2.73;;;8.80;99.90;;;;;;7396832;19;20166;-75
2023/12/17 12:39:21;;;;;;;2.77;2.50;;;8.80;99.90;;;;;;7393493;19;20781;-74
2023/12/17 12:41:50;;;;;;;3.47;2.80;;;8.80;99.90;;;;;;7395472;19;20151;-73
2023/12/17 12:44:17;;;;;;;3.33;2.60;;;8.80;99.90;;;;;;7396680;19;20142;-73
2023/12/17 12:46:47;;;;;;;2.07;1.80;;;8.80;99.90;;;;;;7394185;19;20155;-73
2023/12/17 12:49:13;;;;;;;2.90;2.20;;;8.80;99.90;;;;;;7388520;19;20130;-75
2023/12/17 12:51:39;;;;;;;3.90;2.40;;;8.90;99.90;;;;;;7393521;19;20319;-73
2023/12/17 12:54:09;;;;;;;2.67;1.77;;;8.90;99.90;;;;;;7395435;19;20147;-73
2023/12/17 12:56:35;;;;;;;2.20;1.87;;;8.90;99.90;;;;;;7394072;19;20188;-75